createdAt,value
2023-03-05T00:05:40.192Z,62.71
2023-03-05T00:08:25.967Z,63.43
2023-03-05T00:11:11.914Z,63.30
2023-03-05T00:14:18.090Z,63.18
2023-03-05T00:17:04.090Z,63.91
2023-03-05T00:19:49.936Z,63.99
2023-03-05T00:22:35.947Z,63.93
2023-03-05T00:25:21.925Z,64.34
2023-03-05T00:28:07.758Z,64.75
2023-03-05T00:30:53.893Z,65.56
2023-03-05T00:33:39.709Z,65.83
2023-03-05T00:36:25.732Z,65.87
2023-03-05T00:39:11.836Z,65.76
2023-03-05T00:41:59.503Z,66.81
2023-03-05T00:44:45.462Z,67.13
2023-03-05T00:47:31.466Z,67.37
2023-03-05T00:50:17.338Z,68.21
2023-03-05T00:53:03.238Z,68.82
2023-03-05T00:55:49.129Z,69.01
2023-03-05T00:58:34.994Z,68.48
2023-03-05T01:01:20.975Z,68.67
2023-03-05T01:04:06.805Z,68.53
2023-03-05T01:06:52.806Z,68.26
2023-03-05T01:09:38.596Z,68.79
2023-03-05T01:12:24.407Z,67.95
2023-03-05T01:15:10.373Z,67.84
2023-03-05T01:17:56.320Z,67.48
2023-03-05T01:20:42.149Z,67.79
2023-03-05T01:23:28.197Z,67.84
2023-03-05T01:26:14.033Z,67.91
2023-03-05T01:29:00.122Z,68.06
2023-03-05T01:31:46.088Z,69.50
2023-03-05T01:34:32.022Z,70.11
2023-03-05T01:37:17.896Z,71.83
2023-03-05T01:40:03.683Z,72.21
2023-03-05T01:42:49.490Z,72.64
2023-03-05T01:45:35.489Z,72.56
2023-03-05T01:48:21.735Z,71.73
2023-03-05T01:51:07.543Z,72.40
2023-03-05T01:53:53.549Z,70.09
2023-03-05T01:56:39.432Z,69.86
2023-03-05T01:59:25.270Z,70.77
2023-03-05T02:02:11.142Z,71.27
2023-03-05T02:04:57.094Z,73.57
2023-03-05T02:07:43.111Z,75.67
2023-03-05T02:10:28.936Z,76.88
2023-03-05T02:13:14.811Z,77.73
2023-03-05T02:16:00.764Z,78.59
2023-03-05T02:18:46.578Z,80.23
2023-03-05T02:21:32.532Z,80.73
2023-03-05T02:24:18.359Z,81.28
2023-03-05T02:27:04.275Z,82.08
2023-03-05T02:29:50.161Z,83.51
2023-03-05T02:32:36.181Z,81.55
2023-03-05T02:35:22.482Z,78.83
2023-03-05T02:38:08.264Z,78.94
2023-03-05T02:40:54.098Z,82.63
2023-03-05T02:43:39.994Z,83.54
2023-03-05T02:46:25.801Z,84.95
2023-03-05T02:49:11.739Z,86.68
2023-03-05T02:51:57.738Z,88.69
2023-03-05T02:54:43.499Z,89.90
2023-03-05T02:57:29.290Z,89.21
2023-03-05T03:00:15.057Z,88.36
2023-03-05T03:03:01.078Z,87.64
2023-03-05T03:05:47.072Z,88.75
2023-03-05T03:08:33.000Z,90.35
2023-03-05T03:11:18.808Z,90.95
2023-03-05T03:14:04.712Z,91.25
2023-03-05T03:16:50.705Z,92.52
2023-03-05T03:19:36.578Z,92.95
2023-03-05T03:22:22.484Z,94.61
2023-03-05T03:25:08.438Z,95.70
2023-03-05T03:27:54.259Z,96.94
2023-03-05T03:30:40.114Z,97.55
2023-03-05T03:33:26.058Z,98.12
2023-03-05T03:36:13.840Z,98.51
2023-03-05T03:38:59.840Z,99.22
2023-03-05T03:41:45.809Z,100.00
2023-03-05T03:44:31.655Z,100.00
2023-03-05T03:47:17.610Z,100.00
2023-03-05T03:50:03.562Z,100.00
2023-03-05T03:52:49.373Z,100.00
2023-03-05T03:55:35.217Z,100.00
2023-03-05T03:58:21.055Z,100.00
2023-03-05T04:01:06.878Z,100.00
2023-03-05T04:03:52.894Z,100.00
2023-03-05T04:06:38.747Z,100.00
2023-03-05T04:09:24.634Z,100.00
2023-03-05T04:12:10.371Z,100.00
2023-03-05T04:14:56.309Z,100.00
2023-03-05T04:17:42.266Z,100.00
2023-03-05T04:20:28.116Z,100.00
2023-03-05T04:23:14.093Z,100.00
2023-03-05T04:26:00.006Z,100.00
2023-03-05T04:28:45.930Z,100.00
2023-03-05T04:31:31.968Z,100.00
2023-03-05T04:34:18.006Z,100.00
2023-03-05T04:37:03.896Z,100.00
2023-03-05T04:39:49.899Z,100.00
2023-03-05T04:42:35.636Z,100.00
2023-03-05T04:45:21.512Z,100.00
2023-03-05T04:48:07.477Z,100.00
2023-03-05T04:50:53.327Z,100.00
2023-03-05T04:53:39.171Z,100.00
2023-03-05T04:56:24.994Z,100.00
2023-03-05T04:59:10.839Z,100.00
2023-03-05T05:01:56.727Z,100.00
2023-03-05T05:04:43.071Z,100.00
2023-03-05T05:07:29.041Z,100.00
2023-03-05T05:10:14.982Z,100.00
2023-03-05T05:13:00.781Z,100.00
2023-03-05T05:15:46.574Z,100.00
2023-03-05T05:18:32.318Z,100.00
2023-03-05T05:21:18.317Z,100.00
2023-03-05T05:24:04.278Z,100.00
2023-03-05T05:26:50.116Z,100.00
2023-03-05T05:29:35.956Z,100.00
2023-03-05T05:32:21.799Z,100.00
2023-03-05T05:35:07.644Z,100.00
2023-03-05T05:37:53.548Z,100.00
2023-03-05T05:40:39.499Z,100.00
2023-03-05T05:43:25.564Z,100.00
2023-03-05T05:46:11.497Z,100.00
2023-03-05T05:48:57.651Z,100.00
2023-03-05T05:51:46.126Z,100.00
2023-03-05T05:54:32.044Z,100.00
2023-03-05T05:57:17.903Z,100.00
2023-03-05T06:00:03.807Z,100.00
2023-03-05T06:02:49.697Z,100.00
2023-03-05T06:05:35.596Z,100.00
2023-03-05T06:08:21.591Z,100.00
2023-03-05T06:11:07.393Z,100.00
2023-03-05T06:13:53.293Z,100.00
2023-03-05T06:16:39.354Z,100.00
2023-03-05T06:19:25.494Z,100.00
2023-03-05T06:22:11.516Z,100.00
2023-03-05T06:24:57.452Z,100.00
2023-03-05T06:27:43.216Z,100.00
2023-03-05T06:30:29.271Z,99.23
2023-03-05T06:33:15.109Z,100.00
2023-03-05T06:36:01.241Z,100.00
2023-03-05T06:38:48.929Z,100.00
2023-03-05T06:41:34.967Z,100.00
2023-03-05T06:44:20.973Z,100.00
2023-03-05T06:47:06.847Z,100.00
2023-03-05T06:49:52.774Z,100.00
2023-03-05T06:52:38.901Z,100.00
2023-03-05T06:55:24.850Z,100.00
2023-03-05T06:58:10.844Z,100.00
2023-03-05T07:00:56.796Z,100.00
2023-03-05T07:03:42.790Z,100.00
2023-03-05T07:06:28.939Z,100.00
2023-03-05T07:09:14.801Z,98.98
2023-03-05T07:12:00.718Z,98.11
2023-03-05T07:14:46.557Z,100.00
2023-03-05T07:17:32.347Z,100.00
2023-03-05T07:20:18.166Z,100.00
2023-03-05T07:23:04.122Z,100.00
2023-03-05T07:25:49.924Z,100.00
2023-03-05T07:28:35.879Z,100.00
2023-03-05T07:31:21.635Z,100.00
2023-03-05T07:34:07.588Z,100.00
2023-03-05T07:36:53.695Z,100.00
2023-03-05T07:39:39.504Z,100.00
2023-03-05T07:42:25.628Z,100.00
2023-03-05T07:45:11.560Z,100.00
2023-03-05T07:47:57.479Z,100.00
2023-03-05T07:50:43.378Z,100.00
2023-03-05T07:53:29.701Z,100.00
2023-03-05T07:56:15.644Z,100.00
2023-03-05T07:59:01.621Z,100.00
2023-03-05T08:01:47.479Z,100.00
2023-03-05T08:04:33.463Z,100.00
2023-03-05T08:07:19.495Z,96.48
2023-03-05T08:10:07.410Z,90.40
2023-03-05T08:12:53.340Z,92.21
2023-03-05T08:15:39.360Z,95.24
2023-03-05T08:18:25.615Z,94.83
2023-03-05T08:21:11.561Z,99.60
2023-03-05T08:23:57.394Z,100.00
2023-03-05T08:26:43.322Z,100.00
2023-03-05T08:29:29.359Z,100.00
2023-03-05T08:32:15.173Z,100.00
2023-03-05T08:35:01.185Z,100.00
2023-03-05T08:37:47.031Z,96.29
2023-03-05T08:40:32.948Z,91.79
2023-03-05T08:43:18.900Z,91.12
2023-03-05T08:46:04.762Z,86.88
2023-03-05T08:48:50.571Z,86.31
2023-03-05T08:51:36.579Z,85.22
2023-03-05T08:54:22.451Z,83.88
2023-03-05T08:57:08.433Z,90.86
2023-03-05T08:59:54.293Z,93.13
2023-03-05T09:02:40.274Z,88.98
2023-03-05T09:05:26.248Z,88.99
2023-03-05T09:08:12.077Z,89.80
2023-03-05T09:10:58.059Z,88.73
2023-03-05T09:13:45.969Z,85.79
2023-03-05T09:16:31.934Z,88.28
2023-03-05T09:19:17.926Z,91.75
2023-03-05T09:22:03.924Z,90.64
2023-03-05T09:24:49.889Z,96.93
2023-03-05T09:27:35.964Z,94.68
2023-03-05T09:30:21.957Z,94.63
2023-03-05T09:33:07.811Z,91.43
2023-03-05T09:35:53.807Z,87.53
2023-03-05T09:38:39.645Z,84.36
2023-03-05T09:41:25.542Z,88.92
2023-03-05T09:44:11.406Z,81.09
2023-03-05T09:46:57.389Z,87.80
2023-03-05T09:49:43.197Z,89.17
2023-03-05T09:52:28.981Z,96.42
2023-03-05T09:55:14.899Z,93.40
2023-03-05T09:58:00.954Z,91.15
2023-03-05T10:00:46.847Z,84.58
2023-03-05T10:03:32.716Z,81.17
2023-03-05T10:06:18.541Z,82.13
2023-03-05T10:09:04.419Z,80.74
2023-03-05T10:11:50.401Z,87.02
2023-03-05T10:14:36.266Z,81.90
2023-03-05T10:17:22.260Z,79.68
2023-03-05T10:20:08.237Z,85.40
2023-03-05T10:22:54.007Z,81.38
2023-03-05T10:25:40.984Z,79.16
2023-03-05T10:28:26.980Z,78.66
2023-03-05T10:31:12.821Z,75.96
2023-03-05T10:33:58.823Z,78.46
2023-03-05T10:36:44.718Z,78.56
2023-03-05T10:39:30.579Z,79.45
2023-03-05T10:42:16.515Z,79.43
2023-03-05T10:45:02.362Z,79.82
2023-03-05T10:47:48.388Z,79.22
2023-03-05T10:50:34.281Z,81.88
2023-03-05T10:53:20.244Z,80.88
2023-03-05T10:56:06.058Z,81.61
2023-03-05T10:58:52.023Z,75.53
2023-03-05T11:01:37.957Z,76.20
2023-03-05T11:04:24.079Z,75.36
2023-03-05T11:07:09.942Z,78.62
2023-03-05T11:09:55.874Z,76.25
2023-03-05T11:12:41.609Z,79.66
2023-03-05T11:15:27.486Z,80.05
2023-03-05T11:18:13.288Z,82.33
2023-03-05T11:20:58.967Z,84.11
2023-03-05T11:23:44.828Z,81.53
2023-03-05T11:26:30.735Z,81.93
2023-03-05T11:29:16.697Z,80.01
2023-03-05T11:32:02.790Z,74.97
2023-03-05T11:34:48.681Z,75.97
2023-03-05T11:37:34.594Z,73.32
2023-03-05T11:40:20.590Z,73.23
2023-03-05T11:43:06.585Z,73.93
2023-03-05T11:45:54.642Z,74.55
2023-03-05T11:48:40.979Z,75.89
2023-03-05T11:51:26.777Z,72.97
2023-03-05T11:54:12.638Z,71.81
2023-03-05T11:56:58.542Z,73.47
2023-03-05T11:59:44.504Z,71.49
2023-03-05T12:02:30.478Z,69.85
2023-03-05T12:05:16.405Z,68.55
2023-03-05T12:08:02.390Z,67.98
2023-03-05T12:10:48.440Z,67.67
2023-03-05T12:13:34.309Z,68.49
2023-03-05T12:16:20.333Z,67.74
2023-03-05T12:19:06.244Z,66.78
2023-03-05T12:21:52.200Z,69.09
2023-03-05T12:24:38.168Z,67.99
2023-03-05T12:27:23.992Z,69.98
2023-03-05T12:30:10.077Z,69.19
2023-03-05T12:32:56.063Z,65.69
2023-03-05T12:35:41.911Z,64.81
2023-03-05T12:38:27.919Z,63.38
2023-03-05T12:41:13.813Z,64.06
2023-03-05T12:43:59.728Z,63.16
2023-03-05T12:46:45.801Z,63.35
2023-03-05T12:49:31.587Z,61.31
2023-03-05T12:52:17.599Z,62.33
2023-03-05T12:55:03.528Z,63.80
2023-03-05T12:57:49.442Z,62.11
2023-03-05T13:00:35.392Z,60.35
2023-03-05T13:03:21.356Z,60.77
2023-03-05T13:06:07.310Z,60.08
2023-03-05T13:08:53.333Z,59.46
2023-03-05T13:11:39.277Z,60.97
2023-03-05T13:14:25.302Z,60.16
2023-03-05T13:17:11.198Z,61.55
2023-03-05T13:19:57.089Z,58.70
2023-03-05T13:22:43.093Z,58.36
2023-03-05T13:25:28.992Z,58.29
2023-03-05T13:28:14.957Z,58.99
2023-03-05T13:31:00.965Z,58.36
2023-03-05T13:33:46.799Z,57.21
2023-03-05T13:36:32.888Z,55.76
2023-03-05T13:39:19.058Z,59.53
2023-03-05T13:42:05.011Z,56.29
2023-03-05T13:44:50.807Z,55.42
2023-03-05T13:47:36.683Z,58.21
2023-03-05T13:50:22.530Z,56.17
2023-03-05T13:53:08.513Z,57.55
2023-03-05T13:55:54.443Z,58.10
2023-03-05T13:58:41.336Z,54.31
2023-03-05T14:01:27.116Z,51.13
2023-03-05T14:04:13.095Z,49.12
2023-03-05T14:06:59.028Z,48.51
2023-03-05T14:09:44.842Z,53.19
2023-03-05T14:12:30.671Z,55.92
2023-03-05T14:15:16.867Z,56.11
2023-03-05T14:18:02.952Z,55.76
2023-03-05T14:20:48.899Z,57.25
2023-03-05T14:23:34.779Z,55.65
2023-03-05T14:26:20.712Z,55.89
2023-03-05T14:29:06.733Z,52.83
2023-03-05T14:31:52.478Z,53.33
2023-03-05T14:34:38.433Z,53.73
2023-03-05T14:37:24.372Z,51.60
2023-03-05T14:40:10.282Z,51.81
2023-03-05T14:42:56.374Z,53.34
2023-03-05T14:45:42.247Z,52.40
2023-03-05T14:48:28.286Z,53.08
2023-03-05T14:51:14.262Z,53.90
2023-03-05T14:54:00.048Z,54.37
2023-03-05T14:56:46.116Z,54.26
2023-03-05T14:59:32.056Z,55.79
2023-03-05T15:02:18.049Z,54.53
2023-03-05T15:05:04.038Z,53.30
2023-03-05T15:07:50.012Z,53.99
2023-03-05T15:10:36.257Z,51.61
2023-03-05T15:13:22.231Z,50.74
2023-03-05T15:16:08.177Z,53.60
2023-03-05T15:18:54.181Z,52.91
2023-03-05T15:21:40.180Z,52.87
2023-03-05T15:24:26.133Z,52.13
2023-03-05T15:27:12.020Z,52.25
2023-03-05T15:29:57.814Z,53.42
2023-03-05T15:32:43.740Z,53.26
2023-03-05T15:35:29.763Z,55.74
2023-03-05T15:38:15.681Z,55.32
2023-03-05T15:41:01.923Z,55.45
2023-03-05T15:43:48.011Z,55.75
2023-03-05T15:46:33.927Z,55.17
2023-03-05T15:49:19.883Z,55.26
2023-03-05T15:52:05.746Z,56.09
2023-03-05T15:54:51.674Z,53.57
2023-03-05T15:57:37.612Z,54.12
2023-03-05T16:00:24.874Z,53.54
2023-03-05T16:03:11.607Z,54.81
2023-03-05T16:05:57.729Z,54.25
2023-03-05T16:08:43.703Z,55.35
2023-03-05T16:11:29.607Z,54.50
2023-03-05T16:14:15.582Z,54.61
2023-03-05T16:17:01.496Z,56.57
2023-03-05T16:19:47.442Z,56.42
2023-03-05T16:22:33.334Z,56.32
2023-03-05T16:25:19.370Z,57.70
2023-03-05T16:28:05.285Z,57.43
2023-03-05T16:30:51.121Z,58.77
2023-03-05T16:33:37.154Z,57.74
2023-03-05T16:36:23.024Z,58.76
2023-03-05T16:39:09.389Z,58.31
2023-03-05T16:41:55.174Z,59.87
2023-03-05T16:44:41.111Z,59.39
2023-03-05T16:47:27.135Z,59.27
2023-03-05T16:50:13.135Z,59.13
2023-03-05T16:52:59.107Z,59.19
2023-03-05T16:55:45.119Z,59.57
2023-03-05T16:58:31.021Z,60.27
2023-03-05T17:01:17.030Z,60.53
2023-03-05T17:04:03.160Z,62.22
2023-03-05T17:06:49.285Z,64.17
2023-03-05T17:09:35.152Z,65.70
2023-03-05T17:12:21.277Z,67.52
2023-03-05T17:15:07.053Z,69.43
2023-03-05T17:17:52.946Z,70.27
2023-03-05T17:20:38.827Z,69.75
2023-03-05T17:23:24.696Z,69.54
2023-03-05T17:26:10.542Z,72.23
2023-03-05T17:28:56.293Z,73.65
2023-03-05T17:31:42.386Z,73.25
2023-03-05T17:34:35.823Z,73.01
2023-03-05T17:37:22.335Z,74.90
2023-03-05T17:40:08.328Z,74.95
2023-03-05T17:42:54.257Z,75.74
2023-03-05T17:45:40.162Z,75.23
2023-03-05T17:48:26.048Z,75.19
2023-03-05T17:51:12.004Z,74.24
2023-03-05T17:53:57.955Z,72.28
2023-03-05T17:56:43.908Z,73.38
2023-03-05T17:59:29.857Z,75.27
2023-03-05T18:02:15.694Z,75.00
2023-03-05T18:05:03.850Z,75.76
2023-03-05T18:07:50.257Z,77.64
2023-03-05T18:10:38.390Z,77.90
2023-03-05T18:13:25.277Z,77.57
2023-03-05T18:16:11.532Z,76.75
2023-03-05T18:18:57.709Z,76.78
2023-03-05T18:21:43.663Z,77.65
2023-03-05T18:24:29.733Z,77.45
2023-03-05T18:27:15.676Z,77.02
2023-03-05T18:30:02.348Z,79.55
2023-03-05T18:32:48.766Z,79.54
2023-03-05T18:35:34.730Z,79.56
2023-03-05T18:38:20.751Z,80.43
2023-03-05T18:41:06.646Z,82.25
2023-03-05T18:43:52.464Z,82.83
2023-03-05T18:46:38.442Z,82.21
2023-03-05T18:49:24.393Z,83.42
2023-03-05T18:52:10.273Z,82.24
2023-03-05T18:54:57.256Z,81.59
2023-03-05T18:57:43.201Z,83.74
2023-03-05T19:00:29.517Z,84.56
2023-03-05T19:03:15.510Z,83.59
2023-03-05T19:06:01.456Z,83.26
2023-03-05T19:08:47.425Z,84.42
2023-03-05T19:11:33.355Z,83.91
2023-03-05T19:14:19.349Z,83.98
2023-03-05T19:17:05.349Z,85.20
2023-03-05T19:19:51.302Z,85.32
2023-03-05T19:22:37.237Z,83.85
2023-03-05T19:25:23.158Z,84.08
2023-03-05T19:28:09.240Z,85.18
2023-03-05T19:30:55.539Z,85.14
2023-03-05T19:33:41.363Z,84.15
2023-03-05T19:36:27.312Z,85.72
2023-03-05T19:39:13.291Z,83.59
2023-03-05T19:42:01.104Z,84.84
2023-03-05T19:44:47.038Z,83.59
2023-03-05T19:47:32.922Z,85.22
2023-03-05T19:50:19.259Z,86.42
2023-03-05T19:53:05.735Z,83.94
2023-03-05T19:55:51.634Z,84.26
2023-03-05T19:58:37.523Z,86.84
2023-03-05T20:01:23.531Z,87.52
2023-03-05T20:04:09.322Z,86.36
2023-03-05T20:06:55.281Z,86.87
2023-03-05T20:09:41.374Z,87.58
2023-03-05T20:12:27.191Z,85.99
2023-03-05T20:15:13.190Z,85.43
2023-03-05T20:17:59.142Z,84.60
2023-03-05T20:20:45.081Z,84.84
2023-03-05T20:23:31.093Z,85.17
2023-03-05T20:26:16.924Z,83.43
2023-03-05T20:29:02.911Z,83.86
2023-03-05T20:31:48.863Z,83.54
2023-03-05T20:34:34.694Z,83.72
2023-03-05T20:37:20.581Z,84.01
2023-03-05T20:40:06.520Z,83.95
2023-03-05T20:42:52.410Z,84.88
2023-03-05T20:45:38.303Z,85.06
2023-03-05T20:48:24.304Z,85.33
2023-03-05T20:51:10.272Z,89.97
2023-03-05T20:53:56.236Z,87.70
2023-03-05T20:56:42.158Z,85.34
2023-03-05T20:59:28.041Z,90.36
2023-03-05T21:02:13.931Z,90.92
2023-03-05T21:04:59.901Z,88.22
2023-03-05T21:07:46.022Z,88.94
2023-03-05T21:10:31.861Z,87.81
2023-03-05T21:13:17.879Z,86.49
2023-03-05T21:16:03.730Z,87.97
2023-03-05T21:18:49.645Z,88.28
2023-03-05T21:21:35.533Z,87.47
2023-03-05T21:24:21.358Z,86.59
2023-03-05T21:27:07.217Z,87.13
2023-03-05T21:29:53.177Z,86.58
2023-03-05T21:32:39.128Z,85.41
2023-03-05T21:35:25.278Z,85.41
2023-03-05T21:38:11.545Z,82.68
2023-03-05T21:40:57.372Z,81.23
2023-03-05T21:43:43.522Z,80.15
2023-03-05T21:46:29.505Z,80.48
2023-03-05T21:49:15.561Z,79.81
2023-03-05T21:52:01.643Z,78.62
2023-03-05T21:54:47.470Z,79.61
2023-03-05T21:57:34.500Z,81.25
2023-03-05T22:00:20.684Z,81.58
2023-03-05T22:03:06.553Z,79.95
2023-03-05T22:05:52.519Z,77.77
2023-03-05T22:08:38.226Z,76.81
2023-03-05T22:11:24.071Z,76.29
2023-03-05T22:14:10.067Z,74.12
2023-03-05T22:16:57.889Z,71.23
2023-03-05T22:19:43.888Z,69.49
2023-03-05T22:22:29.873Z,69.44
2023-03-05T22:27:05.985Z,70.87
2023-03-05T22:29:51.885Z,71.52
2023-03-05T22:32:37.894Z,71.13
2023-03-05T22:35:24.220Z,71.01
2023-03-05T22:38:10.088Z,71.80
2023-03-05T22:40:56.153Z,72.07
2023-03-05T22:43:42.314Z,72.64
2023-03-05T22:46:28.176Z,71.62
2023-03-05T22:49:14.135Z,70.96
2023-03-05T22:51:59.996Z,69.18
2023-03-05T22:54:45.937Z,67.40
2023-03-05T22:57:31.885Z,67.69
2023-03-05T23:00:17.840Z,65.19
2023-03-05T23:03:03.830Z,66.86
2023-03-05T23:05:49.841Z,68.05
2023-03-05T23:08:35.654Z,66.08
2023-03-05T23:11:23.559Z,63.91
2023-03-05T23:14:12.561Z,62.94
2023-03-05T23:16:58.325Z,62.14
2023-03-05T23:19:44.410Z,61.25
2023-03-05T23:22:30.383Z,61.36
2023-03-05T23:25:16.135Z,65.21
2023-03-05T23:28:02.060Z,69.27
2023-03-05T23:30:48.008Z,71.91
2023-03-05T23:33:34.040Z,66.92
2023-03-05T23:36:20.029Z,69.16
2023-03-05T23:39:05.859Z,72.61
2023-03-05T23:41:51.830Z,71.93
2023-03-05T23:44:37.721Z,70.30
2023-03-05T23:47:23.534Z,70.93
2023-03-05T23:50:09.428Z,68.41
2023-03-05T23:52:55.223Z,68.00
2023-03-05T23:55:41.144Z,73.99
2023-03-05T23:58:26.983Z,72.93
